createdAt,value
2022-09-28T00:00:15.501Z,10.40
2022-09-28T00:05:15.556Z,10.42
2022-09-28T00:10:15.835Z,10.44
2022-09-28T00:15:15.597Z,10.45
2022-09-28T00:20:16.853Z,10.45
2022-09-28T00:25:16.759Z,10.44
2022-09-28T00:30:16.824Z,10.43
2022-09-28T00:35:16.614Z,10.40
2022-09-28T00:40:16.568Z,10.35
2022-09-28T00:45:16.538Z,10.30
2022-09-28T00:50:16.705Z,10.26
2022-09-28T00:55:16.939Z,10.23
2022-09-28T01:00:17.011Z,10.20
2022-09-28T01:05:16.663Z,10.18
2022-09-28T01:10:17.116Z,10.18
2022-09-28T01:15:17.465Z,10.20
2022-09-28T01:20:17.670Z,10.22
2022-09-28T01:25:17.726Z,10.23
2022-09-28T01:30:17.730Z,10.23
2022-09-28T01:35:17.574Z,10.23
2022-09-28T01:40:19.751Z,10.23
2022-09-28T01:45:19.729Z,10.24
2022-09-28T01:50:19.671Z,10.26
2022-09-28T01:55:19.983Z,10.28
2022-09-28T02:00:21.836Z,10.30
2022-09-28T02:05:21.609Z,10.31
2022-09-28T02:10:21.684Z,10.30
2022-09-28T02:15:21.719Z,10.29
2022-09-28T02:20:21.638Z,10.28
2022-09-28T02:25:21.676Z,10.28
2022-09-28T02:30:21.691Z,10.30
2022-09-28T02:35:21.952Z,10.31
2022-09-28T02:40:22.617Z,10.32
2022-09-28T02:45:23.202Z,10.34
2022-09-28T02:50:23.699Z,10.35
2022-09-28T02:55:23.720Z,10.37
2022-09-28T03:00:23.649Z,10.37
2022-09-28T03:05:23.784Z,10.38
2022-09-28T03:10:23.724Z,10.39
2022-09-28T03:15:23.906Z,10.40
2022-09-28T03:20:23.703Z,10.41
2022-09-28T03:25:23.797Z,10.41
2022-09-28T03:30:24.054Z,10.40
2022-09-28T03:35:23.688Z,10.40
2022-09-28T03:40:23.896Z,10.40
2022-09-28T03:45:24.794Z,10.42
2022-09-28T03:50:24.716Z,10.43
2022-09-28T03:55:24.742Z,10.44
2022-09-28T04:00:25.373Z,10.45
2022-09-28T04:05:25.734Z,10.45
2022-09-28T04:10:27.319Z,10.44
2022-09-28T04:15:27.654Z,10.43
2022-09-28T04:20:35.751Z,10.41
2022-09-28T04:25:35.729Z,10.40
2022-09-28T04:30:35.924Z,10.42
2022-09-28T04:35:36.539Z,10.43
2022-09-28T04:40:39.898Z,10.44
2022-09-28T04:45:41.663Z,10.45
2022-09-28T04:50:52.769Z,10.45
2022-09-28T04:55:52.819Z,10.44
2022-09-28T05:00:54.959Z,10.43
2022-09-28T05:06:02.771Z,10.41
2022-09-28T05:11:02.772Z,10.39
2022-09-28T05:16:05.563Z,10.38
2022-09-28T05:21:05.270Z,10.37
2022-09-28T05:26:04.921Z,10.37
2022-09-28T05:31:15.868Z,10.36
2022-09-28T05:36:16.649Z,10.39
2022-09-28T05:41:16.703Z,10.43
2022-09-28T05:46:16.953Z,10.46
2022-09-28T05:51:17.105Z,10.50
2022-09-28T05:56:18.489Z,10.53
2022-09-28T06:01:19.341Z,10.56
2022-09-28T06:06:21.149Z,10.58
2022-09-28T06:11:21.216Z,10.61
2022-09-28T06:16:20.844Z,10.68
2022-09-28T06:21:21.431Z,10.74
2022-09-28T06:26:22.633Z,10.77
2022-09-28T06:31:24.745Z,10.83
2022-09-28T06:36:24.980Z,10.94
2022-09-28T06:41:24.821Z,11.07
2022-09-28T06:46:27.101Z,11.17
2022-09-28T06:51:31.662Z,11.25
2022-09-28T06:56:33.089Z,11.34
2022-09-28T07:01:41.714Z,11.41
2022-09-28T07:07:00.327Z,11.42
2022-09-28T07:12:07.792Z,11.48
2022-09-28T07:17:13.542Z,11.63
2022-09-28T07:22:16.137Z,11.79
2022-09-28T07:27:25.492Z,11.96
2022-09-28T07:32:34.857Z,12.19
2022-09-28T07:37:34.991Z,12.45
2022-09-28T07:42:35.759Z,12.71
2022-09-28T07:47:46.802Z,12.89
2022-09-28T07:52:51.615Z,12.97
2022-09-28T07:57:53.652Z,13.02
2022-09-28T08:02:57.987Z,13.10
2022-09-28T08:08:00.259Z,13.37
2022-09-28T08:13:20.395Z,14.00
2022-09-28T08:18:20.818Z,14.64
2022-09-28T08:23:21.028Z,14.98
2022-09-28T08:28:23.360Z,15.14
2022-09-28T08:33:24.811Z,15.16
2022-09-28T08:38:38.960Z,15.16
2022-09-28T08:43:41.052Z,15.18
2022-09-28T08:49:13.032Z,15.02
2022-09-28T08:53:55.798Z,14.73
2022-09-28T08:58:55.819Z,14.43
2022-09-28T09:04:04.828Z,14.23
2022-09-28T09:09:05.167Z,14.06
2022-09-28T09:14:05.157Z,13.92
2022-09-28T09:19:09.714Z,14.02
2022-09-28T09:24:09.907Z,14.46
2022-09-28T09:29:12.519Z,15.25
2022-09-28T09:34:17.830Z,15.77
2022-09-28T09:39:36.734Z,15.58
2022-09-28T09:44:40.252Z,15.34
2022-09-28T09:49:39.989Z,15.30
2022-09-28T09:54:41.759Z,15.37
2022-09-28T09:59:43.753Z,15.74
2022-09-28T10:04:46.006Z,16.24
2022-09-28T10:09:56.933Z,16.43
2022-09-28T10:14:58.828Z,16.30
2022-09-28T10:20:00.787Z,16.16
2022-09-28T10:25:01.101Z,16.05
2022-09-28T10:30:01.354Z,15.95
2022-09-28T10:35:02.126Z,15.83
2022-09-28T10:40:03.865Z,15.61
2022-09-28T10:45:11.463Z,15.44
2022-09-28T10:50:11.116Z,15.40
2022-09-28T10:55:10.908Z,15.58
2022-09-28T11:00:13.287Z,16.06
2022-09-28T11:05:14.798Z,16.69
2022-09-28T11:10:15.162Z,17.21
2022-09-28T11:15:14.994Z,17.60
2022-09-28T11:20:15.129Z,17.72
2022-09-28T11:25:15.098Z,17.37
2022-09-28T11:30:16.998Z,16.80
2022-09-28T11:35:17.059Z,16.63
2022-09-28T11:40:17.210Z,17.00
2022-09-28T11:45:17.020Z,17.33
2022-09-28T11:50:23.557Z,17.37
2022-09-28T11:55:20.143Z,17.27
2022-09-28T12:00:21.944Z,17.01
2022-09-28T12:05:23.894Z,16.77
2022-09-28T12:10:24.075Z,16.66
2022-09-28T12:15:24.026Z,16.72
2022-09-28T12:20:24.495Z,16.81
2022-09-28T12:25:24.016Z,16.74
2022-09-28T12:30:24.795Z,16.51
2022-09-28T12:35:25.072Z,16.21
2022-09-28T12:40:25.941Z,15.86
2022-09-28T12:45:27.227Z,15.66
2022-09-28T12:50:38.512Z,15.57
2022-09-28T12:55:29.074Z,15.50
2022-09-28T13:00:29.059Z,15.79
2022-09-28T13:05:29.092Z,16.34
2022-09-28T13:10:31.353Z,16.80
2022-09-28T13:15:31.648Z,17.10
2022-09-28T13:20:32.058Z,17.28
2022-09-28T13:25:32.156Z,17.46
2022-09-28T13:30:32.074Z,17.60
2022-09-28T13:35:32.866Z,17.61
2022-09-28T13:40:33.890Z,17.54
2022-09-28T13:45:34.072Z,17.46
2022-09-28T13:50:34.271Z,17.52
2022-09-28T13:55:34.059Z,17.61
2022-09-28T14:00:34.280Z,17.42
2022-09-28T14:05:34.587Z,17.25
2022-09-28T14:10:34.148Z,17.45
2022-09-28T14:15:34.141Z,17.69
2022-09-28T14:20:34.434Z,17.62
2022-09-28T14:25:35.513Z,17.44
2022-09-28T14:30:35.141Z,17.27
2022-09-28T14:35:35.140Z,17.10
2022-09-28T14:40:53.524Z,16.90
2022-09-28T14:45:54.133Z,17.14
2022-09-28T14:50:56.085Z,17.72
2022-09-28T14:55:56.257Z,17.88
2022-09-28T15:00:56.222Z,17.71
2022-09-28T15:05:56.146Z,17.55
2022-09-28T15:10:56.183Z,17.41
2022-09-28T15:15:56.256Z,17.15
2022-09-28T15:20:56.152Z,16.89
2022-09-28T15:25:56.203Z,16.67
2022-09-28T15:30:56.162Z,16.53
2022-09-28T15:35:56.113Z,16.45
2022-09-28T15:40:56.992Z,16.34
2022-09-28T15:45:59.475Z,16.16
2022-09-28T15:50:59.119Z,15.97
2022-09-28T15:55:59.233Z,15.77
2022-09-28T16:00:59.197Z,15.57
2022-09-28T16:05:59.246Z,15.35
2022-09-28T16:10:59.111Z,15.08
2022-09-28T16:15:59.287Z,14.71
2022-09-28T16:20:59.115Z,14.22
2022-09-28T16:25:59.205Z,13.67
2022-09-28T16:30:59.562Z,13.08
2022-09-28T16:35:59.739Z,12.51
2022-09-28T16:41:01.098Z,12.07
2022-09-28T16:46:01.259Z,11.76
2022-09-28T16:51:01.190Z,11.58
2022-09-28T16:56:01.232Z,11.47
2022-09-28T17:01:01.243Z,11.37
2022-09-28T17:06:01.207Z,11.29
2022-09-28T17:11:14.917Z,11.24
2022-09-28T17:16:03.799Z,11.20
2022-09-28T17:21:04.283Z,11.18
2022-09-28T17:26:04.305Z,11.15
2022-09-28T17:31:04.362Z,11.09
2022-09-28T17:36:04.997Z,11.00
2022-09-28T17:41:05.336Z,10.90
2022-09-28T17:46:07.220Z,10.82
2022-09-28T17:51:07.947Z,10.74
2022-09-28T17:56:09.275Z,10.65
2022-09-28T18:01:09.259Z,10.58
2022-09-28T18:06:10.016Z,10.57
2022-09-28T18:11:10.299Z,10.59
2022-09-28T18:16:10.388Z,10.63
2022-09-28T18:21:10.249Z,10.65
2022-09-28T18:26:10.403Z,10.61
2022-09-28T18:31:10.386Z,10.51
2022-09-28T18:36:10.250Z,10.39
2022-09-28T18:41:10.589Z,10.26
2022-09-28T18:46:10.373Z,10.14
2022-09-28T18:51:10.275Z,10.03
2022-09-28T18:56:10.312Z,9.91
2022-09-28T19:01:28.986Z,9.81
2022-09-28T19:06:12.633Z,9.70
2022-09-28T19:11:12.242Z,9.61
2022-09-28T19:16:12.310Z,9.54
2022-09-28T19:21:12.388Z,9.49
2022-09-28T19:26:12.370Z,9.45
2022-09-28T19:31:12.378Z,9.43
2022-09-28T19:36:12.343Z,9.39
2022-09-28T19:41:12.323Z,9.34
2022-09-28T19:46:12.731Z,9.26
2022-09-28T19:51:12.662Z,9.20
2022-09-28T19:56:12.277Z,9.17
2022-09-28T20:01:12.331Z,9.19
2022-09-28T20:06:17.123Z,9.23
2022-09-28T20:11:14.330Z,9.26
2022-09-28T20:16:14.443Z,9.28
2022-09-28T20:21:18.012Z,9.29
2022-09-28T20:26:16.327Z,9.28
2022-09-28T20:31:16.474Z,9.27
2022-09-28T20:36:16.358Z,9.24
2022-09-28T20:41:17.438Z,9.17
2022-09-28T20:46:18.968Z,9.09
2022-09-28T20:51:19.405Z,9.02
2022-09-28T20:56:19.522Z,8.97
2022-09-28T21:01:19.527Z,8.93
2022-09-28T21:06:19.424Z,8.91
2022-09-28T21:11:19.323Z,8.90
2022-09-28T21:16:19.324Z,8.87
2022-09-28T21:21:19.317Z,8.83
2022-09-28T21:26:21.196Z,8.78
2022-09-28T21:31:26.207Z,8.72
2022-09-28T21:36:23.421Z,8.67
2022-09-28T21:41:23.432Z,8.66
2022-09-28T21:46:24.253Z,8.66
2022-09-28T21:51:24.539Z,8.64
2022-09-28T21:56:24.380Z,8.63
2022-09-28T22:01:25.227Z,8.65
2022-09-28T22:06:27.404Z,8.69
2022-09-28T22:11:27.449Z,8.71
2022-09-28T22:16:27.470Z,8.69
2022-09-28T22:21:27.446Z,8.62
2022-09-28T22:26:27.448Z,8.55
2022-09-28T22:31:27.480Z,8.50
2022-09-28T22:36:27.441Z,8.46
2022-09-28T22:41:27.995Z,8.44
2022-09-28T22:46:28.633Z,8.42
2022-09-28T22:51:28.395Z,8.41
2022-09-28T22:56:28.480Z,8.41
2022-09-28T23:01:28.633Z,8.44
2022-09-28T23:06:30.335Z,8.49
2022-09-28T23:11:30.434Z,8.57
2022-09-28T23:16:30.663Z,8.66
2022-09-28T23:21:30.820Z,8.75
2022-09-28T23:26:30.556Z,8.85
2022-09-28T23:31:30.506Z,8.98
2022-09-28T23:36:30.466Z,9.08
2022-09-28T23:41:30.448Z,9.15
2022-09-28T23:46:30.513Z,9.20
2022-09-28T23:51:31.113Z,9.24
2022-09-28T23:56:34.537Z,9.31
